This is the latest recevied weather packets stored in our database for station/object K7SKM. If no packets are shown the sender has not sent any weather packets the latest 10 day(s).
| Time | Temp. | Humidity | Pressure | Rain* | Wind** | Luminosity | Snow |
|---|---|---|---|---|---|---|---|
| 1777944316 | 25.56° C | 43% | 1013.7 hPa | 0 mm | - | 36 W/m² | - |
| 1777944013 | 25.56° C | 43% | 1013.8 hPa | 0 mm | - | 41 W/m² | - |
| 1777943708 | 26.11° C | 43% | 1013.7 hPa | 0 mm | - | 53 W/m² | - |
| 1777943406 | 25.56° C | 43% | 1013.8 hPa | 0 mm | - | 43 W/m² | - |
| 1777943101 | 27.22° C | 40% | 1013.8 hPa | 0 mm | - | 96 W/m² | - |
| 1777942797 | 27.22° C | 39% | 1013.8 hPa | 0 mm | - | 212 W/m² | - |
| 1777942494 | 27.78° C | 40% | 1013.8 hPa | 0 mm | - | 318 W/m² | - |
| 1777942192 | 27.78° C | 39% | 1014.1 hPa | 0 mm | - | 325 W/m² | - |
| 1777941889 | 27.78° C | 38% | 1013.9 hPa | 0 mm | - | 331 W/m² | - |
| 1777941585 | 27.22° C | 38% | 1013.8 hPa | 0 mm | - | 339 W/m² | - |
| 1777941283 | 28.33° C | 37% | 1013.9 hPa | 0 mm | - | 348 W/m² | - |
| 1777940979 | 28.33° C | 38% | 1013.6 hPa | 0 mm | - | 353 W/m² | - |
| 1777940675 | 27.78° C | 39% | 1013.9 hPa | 0 mm | - | 354 W/m² | - |
| 1777940374 | 27.78° C | 37% | 1013.8 hPa | 0 mm | - | 363 W/m² | - |
| 1777940071 | 27.78° C | 38% | 1013.8 hPa | 0 mm | - | 367 W/m² | - |
| 1777939767 | 28.89° C | 35% | 1013.9 hPa | 0 mm | - | 376 W/m² | - |
| 1777939466 | 29.44° C | 34% | 1013.7 hPa | 0 mm | - | 383 W/m² | - |
| 1777939162 | 28.33° C | 35% | 1013.8 hPa | 0 mm | - | 383 W/m² | - |
| 1777938860 | 27.22° C | 36% | 1013.7 hPa | 0 mm | - | 380 W/m² | - |
| 1777938555 | 27.78° C | 37% | 1013.7 hPa | 0 mm | - | 325 W/m² | - |
| 1777938253 | 27.22° C | 35% | 1013.8 hPa | 0 mm | - | 395 W/m² | - |
| 1777937950 | 28.33° C | 33% | 1013.7 hPa | 0 mm | - | 403 W/m² | - |
| 1777937645 | 28.33° C | 32% | 1013.6 hPa | 0 mm | - | 407 W/m² | - |
| 1777937342 | 28.33° C | 34% | 1013.7 hPa | 0 mm | - | 410 W/m² | - |
| 1777937039 | 27.78° C | 40% | 1013.6 hPa | 0 mm | - | 410 W/m² | - |
* Rain latest hour (hover to see other rain measurements)
** Current wind speed in m/s (hover to see current wind gust speed)